createdAt,value
2023-03-23T15:58:00.797Z,99067.91
2023-03-23T16:00:42.571Z,99059.03
2023-03-23T16:03:39.499Z,99059.97
2023-03-23T16:06:24.968Z,99058.38
2023-03-23T16:09:01.477Z,99046.00
2023-03-23T16:11:40.763Z,99051.47
2023-03-23T16:14:20.626Z,99046.34
2023-03-23T16:17:00.711Z,99038.22
2023-03-23T16:19:40.523Z,99039.28
2023-03-23T16:22:20.591Z,99039.28
2023-03-23T16:25:02.108Z,99026.91
2023-03-23T16:27:41.802Z,99008.41
2023-03-23T16:30:27.426Z,99006.59
2023-03-23T16:33:01.637Z,99019.09
2023-03-23T16:35:41.490Z,99010.38
2023-03-23T16:38:20.622Z,98997.94
2023-03-23T16:41:00.578Z,98997.94
2023-03-23T16:43:42.984Z,99005.13
2023-03-23T16:46:20.533Z,98999.91
2023-03-23T16:49:02.213Z,98995.41
2023-03-23T16:51:42.825Z,98996.47
2023-03-23T16:54:20.475Z,98994.78
2023-03-23T16:57:03.489Z,98983.25
2023-03-23T16:59:40.608Z,98971.69
2023-03-23T17:02:20.737Z,98965.50
2023-03-23T17:05:01.838Z,98978.00
2023-03-23T17:07:42.172Z,98974.47
2023-03-23T17:10:20.655Z,98961.97
2023-03-23T17:13:00.686Z,98964.75
2023-03-23T17:15:44.504Z,98954.91
2023-03-23T17:18:21.150Z,98937.16
2023-03-23T17:21:00.578Z,98918.44
2023-03-23T17:23:40.590Z,98905.06
2023-03-23T17:26:20.959Z,98905.94
2023-03-23T17:29:00.627Z,98909.56
2023-03-23T17:31:41.816Z,98918.44
2023-03-23T17:34:20.986Z,98905.94
2023-03-23T17:37:00.530Z,98902.41
2023-03-23T17:39:42.700Z,98905.06
2023-03-23T17:42:20.836Z,98894.38
2023-03-23T17:45:00.544Z,98884.66
2023-03-23T17:47:40.562Z,98882.00
2023-03-23T17:50:20.684Z,98873.97
2023-03-23T17:53:01.634Z,98871.41
2023-03-23T17:55:43.634Z,98868.88
2023-03-23T17:58:20.948Z,98863.53
2023-03-23T18:01:00.637Z,98861.81
2023-03-23T18:03:41.146Z,98861.94
2023-03-23T18:06:21.159Z,98865.72
2023-03-23T18:09:00.524Z,98867.41
2023-03-23T18:11:40.908Z,98869.34
2023-03-23T18:14:21.625Z,98862.28
2023-03-23T18:17:01.852Z,98847.34
2023-03-23T18:19:40.592Z,98842.00
2023-03-23T18:22:20.736Z,98838.50
2023-03-23T18:25:02.692Z,98823.41
2023-03-23T18:27:41.641Z,98811.00
2023-03-23T18:30:20.959Z,98817.34
2023-03-23T18:33:00.878Z,98803.13
2023-03-23T18:35:40.939Z,98802.28
2023-03-23T18:38:20.706Z,98790.88
2023-03-23T18:41:00.884Z,98788.19
2023-03-23T18:43:41.060Z,98773.22
2023-03-23T18:46:20.560Z,98771.44
2023-03-23T18:49:00.500Z,98776.78
2023-03-23T18:51:41.745Z,98765.34
2023-03-23T18:54:20.613Z,98769.84
2023-03-23T18:57:02.170Z,98752.09
2023-03-23T18:59:40.589Z,98759.28
2023-03-23T19:02:25.028Z,98755.88
2023-03-23T19:05:01.265Z,98756.59
2023-03-23T19:07:40.544Z,98740.69
2023-03-23T19:10:23.221Z,98730.13
2023-03-23T19:13:01.058Z,98735.47
2023-03-23T19:15:41.475Z,98717.75
2023-03-23T19:18:20.960Z,98729.41
2023-03-23T19:23:41.456Z,98737.28
2023-03-23T19:26:34.690Z,98717.75
2023-03-23T19:32:09.058Z,98724.53
2023-03-23T19:34:52.520Z,98706.78
2023-03-23T19:37:34.664Z,98707.66
2023-03-23T19:40:31.352Z,98705.69
2023-03-23T19:43:10.588Z,98708.25
2023-03-23T19:45:50.813Z,98695.59
2023-03-23T19:48:31.178Z,98716.03
2023-03-23T19:51:12.588Z,98712.34
2023-03-23T19:53:51.009Z,98713.09
2023-03-23T19:56:30.947Z,98717.47
2023-03-23T19:59:16.561Z,98718.22
2023-03-23T20:01:50.665Z,98716.25
2023-03-23T20:04:30.737Z,98709.91
2023-03-23T20:07:11.355Z,98718.69
2023-03-23T20:09:50.754Z,98716.00
2023-03-23T20:12:30.527Z,98698.97
2023-03-23T20:15:10.792Z,98714.78
2023-03-23T20:17:50.680Z,98707.75
2023-03-23T20:20:30.728Z,98715.75
2023-03-23T20:23:10.849Z,98705.91
2023-03-23T20:25:51.148Z,98703.38
2023-03-23T20:28:30.643Z,98713.81
2023-03-23T20:31:23.983Z,98707.88
2023-03-23T20:34:04.616Z,98709.31
2023-03-23T20:36:45.876Z,98711.13
2023-03-23T20:39:22.529Z,98719.16
2023-03-23T20:42:06.626Z,98729.84
2023-03-23T20:44:45.302Z,98718.31
2023-03-23T20:47:20.745Z,98718.44
2023-03-23T20:50:01.019Z,98713.94
2023-03-23T20:52:40.727Z,98730.81
2023-03-23T20:55:20.590Z,98731.81
2023-03-23T20:58:01.071Z,98729.97
2023-03-23T21:00:41.858Z,98731.81
2023-03-23T21:03:20.589Z,98731.81
2023-03-23T21:06:03.349Z,98740.91
2023-03-23T21:08:41.002Z,98750.66
2023-03-23T21:11:23.134Z,98749.66
2023-03-23T21:14:01.314Z,98744.41
2023-03-23T21:16:42.067Z,98739.06
2023-03-23T21:19:20.673Z,98743.69
2023-03-23T21:22:01.937Z,98740.19
2023-03-23T21:24:41.828Z,98746.50
2023-03-23T21:27:20.695Z,98753.56
2023-03-23T21:30:01.373Z,98755.34
2023-03-23T21:32:41.273Z,98750.00
2023-03-23T21:35:20.968Z,98751.84
2023-03-23T21:38:00.614Z,98753.81
2023-03-23T21:40:42.296Z,98765.34
2023-03-23T21:43:28.386Z,98765.34
2023-03-23T21:46:14.114Z,98777.84
2023-03-23T21:48:51.750Z,98772.50
2023-03-23T21:51:30.961Z,98757.44
2023-03-23T21:54:11.926Z,98765.44
2023-03-23T21:56:51.263Z,98764.63
2023-03-23T21:59:30.803Z,98763.78
2023-03-23T22:02:14.100Z,98755.88
2023-03-23T22:04:52.611Z,98758.56
2023-03-23T22:07:33.241Z,98768.25
2023-03-23T22:10:11.000Z,98771.91
2023-03-23T22:12:53.751Z,98768.38
2023-03-23T22:15:30.562Z,98770.19
2023-03-23T22:18:10.586Z,98772.03
2023-03-23T22:20:50.511Z,98775.53
2023-03-23T22:23:30.619Z,98777.50
2023-03-23T22:26:14.246Z,98776.50
2023-03-23T22:28:51.119Z,98789.88
2023-03-23T22:31:34.476Z,98781.84
2023-03-23T22:34:13.141Z,98785.50
2023-03-23T22:36:51.017Z,98798.88
2023-03-23T22:39:31.453Z,98791.81
2023-03-23T22:42:12.373Z,98800.72
2023-03-23T22:44:51.564Z,98801.66
2023-03-23T22:47:32.092Z,98795.50
2023-03-23T22:50:11.359Z,98795.50
2023-03-23T22:52:52.561Z,98794.63
2023-03-23T22:55:31.701Z,98801.78
2023-03-23T22:58:11.616Z,98793.06
2023-03-23T23:00:55.950Z,98793.91
2023-03-23T23:03:31.405Z,98786.72
2023-03-23T23:06:12.328Z,98796.56
2023-03-23T23:08:51.863Z,98787.81
2023-03-23T23:11:31.471Z,98794.00
2023-03-23T23:14:11.103Z,98808.34
2023-03-23T23:16:52.729Z,98808.34
2023-03-23T23:19:30.689Z,98803.97
2023-03-23T23:22:19.084Z,98804.94
2023-03-23T23:25:01.329Z,98814.66
2023-03-23T23:27:40.541Z,98819.28
2023-03-23T23:30:20.696Z,98824.63
2023-03-23T23:33:02.268Z,98833.63
2023-03-23T23:35:41.853Z,98836.28
2023-03-23T23:38:20.861Z,98831.91
2023-03-23T23:41:00.572Z,98840.91
2023-03-23T23:43:41.959Z,98840.91
2023-03-23T23:46:23.344Z,98845.38
2023-03-23T23:49:03.812Z,98852.56
2023-03-23T23:51:41.274Z,98846.47
2023-03-23T23:54:23.050Z,98858.00
2023-03-23T23:57:02.638Z,98858.84
2023-03-23T23:59:41.141Z,98857.19
